KNFL/NFL METAR and TAF weather

Enter ICAO airport designator
Station Type Date Time Source
KNFL METAR 2022/11/26 09:56 UTC NOAA

KNFL 260956Z AUTO 03003KT 10SM CLR M02/M08 A3022 RMK AO2 SLP195 T10221083


Station Type Date Time Source
KNFL Decoded METAR 2022/11/26 09:56 UTC NOAA

FALLON NAVAL AIR STATION, NV, United States (KNFL) 39-26N 118-41W 1199M
Nov 26, 2022 - 04:56 AM EST / 2022.11.26 0956 UTC
Wind: from the NNE (030 degrees) at 3 MPH (3 KT):0
Visibility: 10 mile(s):0
Sky conditions: clear
Temperature: 28.0 F (-2.2 C)
Dew Point: 17.1 F (-8.3 C)
Relative Humidity: 62%
Pressure (altimeter): 30.22 in. Hg (1023 hPa)
ob: KNFL 260956Z AUTO 03003KT 10SM CLR M02/M08 A3022 RMK AO2 SLP195 T10221083
cycle: 10

Station Type Date Time Source
KNFL TAF 2022/11/23 15:42 UTC NOAA

TAF KNFL 2315/2415 VRB06KT 9999 FEW100 SCT200 QNH3025INS LAST NO AMENDS AFT 2323 NEXT 2807 T10/2321Z TM08/2414Z FS30003

Example: see airport list